sensor_id;sensor_type;location;lat;lon;timestamp;P1;durP1;ratioP1;P2;durP2;ratioP2
20857;SDS011;10589;53.636;10.012;2022-12-29T04:46:00;4.67;;;4.10;;
20857;SDS011;10589;53.636;10.012;2022-12-29T04:48:25;4.10;;;3.57;;
20857;SDS011;10589;53.636;10.012;2022-12-29T04:50:51;4.10;;;3.70;;
20857;SDS011;10589;53.636;10.012;2022-12-29T04:53:16;4.87;;;4.00;;
20857;SDS011;10589;53.636;10.012;2022-12-29T04:55:42;4.77;;;4.10;;
20857;SDS011;10589;53.636;10.012;2022-12-29T04:58:08;5.77;;;3.70;;
20857;SDS011;10589;53.636;10.012;2022-12-29T05:00:34;6.37;;;3.70;;
20857;SDS011;10589;53.636;10.012;2022-12-29T05:02:59;3.87;;;3.57;;
20857;SDS011;10589;53.636;10.012;2022-12-29T05:05:25;5.40;;;4.00;;
20857;SDS011;10589;53.636;10.012;2022-12-29T05:07:51;3.90;;;3.50;;
20857;SDS011;10589;53.636;10.012;2022-12-29T05:10:16;5.10;;;3.63;;
20857;SDS011;10589;53.636;10.012;2022-12-29T05:12:42;3.80;;;3.50;;
20857;SDS011;10589;53.636;10.012;2022-12-29T05:15:09;4.00;;;3.67;;
20857;SDS011;10589;53.636;10.012;2022-12-29T05:17:35;4.57;;;3.50;;
20857;SDS011;10589;53.636;10.012;2022-12-29T05:20:01;5.30;;;3.87;;
20857;SDS011;10589;53.636;10.012;2022-12-29T05:22:26;5.57;;;4.10;;
20857;SDS011;10589;53.636;10.012;2022-12-29T05:24:52;4.57;;;4.07;;
20857;SDS011;10589;53.636;10.012;2022-12-29T05:27:18;4.47;;;3.87;;
20857;SDS011;10589;53.636;10.012;2022-12-29T05:29:43;4.83;;;4.40;;
20857;SDS011;10589;53.636;10.012;2022-12-29T05:32:09;4.40;;;4.00;;
20857;SDS011;10589;53.636;10.012;2022-12-29T05:34:34;4.97;;;4.40;;
20857;SDS011;10589;53.636;10.012;2022-12-29T05:37:00;5.20;;;4.60;;
20857;SDS011;10589;53.636;10.012;2022-12-29T05:39:27;4.80;;;4.30;;
20857;SDS011;10589;53.636;10.012;2022-12-29T05:41:53;5.20;;;4.67;;
20857;SDS011;10589;53.636;10.012;2022-12-29T05:44:18;5.93;;;5.03;;
20857;SDS011;10589;53.636;10.012;2022-12-29T05:46:44;11.07;;;4.77;;
20857;SDS011;10589;53.636;10.012;2022-12-29T05:49:09;5.43;;;4.93;;
20857;SDS011;10589;53.636;10.012;2022-12-29T05:51:35;5.80;;;4.90;;
20857;SDS011;10589;53.636;10.012;2022-12-29T05:54:00;6.17;;;5.40;;
20857;SDS011;10589;53.636;10.012;2022-12-29T05:56:26;7.80;;;5.20;;
20857;SDS011;10589;53.636;10.012;2022-12-29T05:58:51;6.00;;;5.40;;
20857;SDS011;10589;53.636;10.012;2022-12-29T06:01:17;7.90;;;4.17;;
20857;SDS011;10589;53.636;10.012;2022-12-29T06:03:43;4.73;;;4.30;;
20857;SDS011;10589;53.636;10.012;2022-12-29T06:06:08;5.97;;;4.27;;
20857;SDS011;10589;53.636;10.012;2022-12-29T06:08:34;5.93;;;4.37;;
20857;SDS011;10589;53.636;10.012;2022-12-29T06:11:00;5.13;;;4.30;;
20857;SDS011;10589;53.636;10.012;2022-12-29T06:13:25;7.30;;;3.47;;
20857;SDS011;10589;53.636;10.012;2022-12-29T06:15:52;3.83;;;3.30;;
20857;SDS011;10589;53.636;10.012;2022-12-29T06:18:17;3.63;;;2.90;;
20857;SDS011;10589;53.636;10.012;2022-12-29T06:20:43;3.63;;;3.20;;
20857;SDS011;10589;53.636;10.012;2022-12-29T06:23:09;4.93;;;2.87;;
20857;SDS011;10589;53.636;10.012;2022-12-29T06:25:34;6.00;;;3.53;;
20857;SDS011;10589;53.636;10.012;2022-12-29T06:28:01;4.07;;;3.50;;
20857;SDS011;10589;53.636;10.012;2022-12-29T06:30:27;3.40;;;3.10;;
20857;SDS011;10589;53.636;10.012;2022-12-29T06:32:52;3.77;;;3.10;;
20857;SDS011;10589;53.636;10.012;2022-12-29T06:35:19;4.23;;;2.97;;
20857;SDS011;10589;53.636;10.012;2022-12-29T06:37:45;3.80;;;2.80;;
20857;SDS011;10589;53.636;10.012;2022-12-29T06:40:10;5.03;;;2.60;;
20857;SDS011;10589;53.636;10.012;2022-12-29T06:42:36;4.80;;;2.67;;
20857;SDS011;10589;53.636;10.012;2022-12-29T06:45:02;4.43;;;2.47;;
20857;SDS011;10589;53.636;10.012;2022-12-29T06:47:28;4.33;;;3.33;;
20857;SDS011;10589;53.636;10.012;2022-12-29T06:49:54;4.33;;;2.93;;
20857;SDS011;10589;53.636;10.012;2022-12-29T06:52:20;4.23;;;2.63;;
20857;SDS011;10589;53.636;10.012;2022-12-29T06:54:45;5.20;;;3.50;;
20857;SDS011;10589;53.636;10.012;2022-12-29T06:57:11;4.67;;;2.53;;
20857;SDS011;10589;53.636;10.012;2022-12-29T06:59:37;2.77;;;2.57;;
20857;SDS011;10589;53.636;10.012;2022-12-29T07:02:02;3.17;;;2.60;;
20857;SDS011;10589;53.636;10.012;2022-12-29T07:04:28;3.60;;;2.63;;
20857;SDS011;10589;53.636;10.012;2022-12-29T07:06:54;6.03;;;2.43;;
20857;SDS011;10589;53.636;10.012;2022-12-29T07:09:20;3.20;;;2.90;;
20857;SDS011;10589;53.636;10.012;2022-12-29T07:11:45;3.47;;;2.97;;
20857;SDS011;10589;53.636;10.012;2022-12-29T07:14:11;2.77;;;2.57;;
20857;SDS011;10589;53.636;10.012;2022-12-29T07:16:37;3.00;;;2.70;;
20857;SDS011;10589;53.636;10.012;2022-12-29T07:19:03;3.13;;;2.70;;
20857;SDS011;10589;53.636;10.012;2022-12-29T07:21:29;3.30;;;2.90;;
20857;SDS011;10589;53.636;10.012;2022-12-29T07:23:54;3.30;;;3.00;;
20857;SDS011;10589;53.636;10.012;2022-12-29T07:26:20;4.03;;;3.27;;
20857;SDS011;10589;53.636;10.012;2022-12-29T07:28:46;4.50;;;3.13;;
20857;SDS011;10589;53.636;10.012;2022-12-29T07:31:16;5.83;;;3.50;;
20857;SDS011;10589;53.636;10.012;2022-12-29T07:33:43;4.53;;;3.50;;
20857;SDS011;10589;53.636;10.012;2022-12-29T07:36:10;4.20;;;3.80;;
20857;SDS011;10589;53.636;10.012;2022-12-29T07:38:36;3.47;;;3.17;;
20857;SDS011;10589;53.636;10.012;2022-12-29T07:41:01;4.33;;;3.40;;
20857;SDS011;10589;53.636;10.012;2022-12-29T07:43:27;6.47;;;3.53;;
20857;SDS011;10589;53.636;10.012;2022-12-29T07:45:52;4.53;;;3.00;;
20857;SDS011;10589;53.636;10.012;2022-12-29T07:48:18;4.77;;;3.43;;
20857;SDS011;10589;53.636;10.012;2022-12-29T07:50:44;5.37;;;3.13;;
20857;SDS011;10589;53.636;10.012;2022-12-29T07:53:10;5.53;;;2.97;;
20857;SDS011;10589;53.636;10.012;2022-12-29T07:55:35;3.33;;;3.07;;
20857;SDS011;10589;53.636;10.012;2022-12-29T07:58:01;7.10;;;3.87;;
20857;SDS011;10589;53.636;10.012;2022-12-29T08:00:27;5.43;;;3.30;;
20857;SDS011;10589;53.636;10.012;2022-12-29T08:02:52;3.60;;;3.30;;
20857;SDS011;10589;53.636;10.012;2022-12-29T08:05:18;6.57;;;3.47;;
20857;SDS011;10589;53.636;10.012;2022-12-29T08:07:44;5.03;;;3.27;;
20857;SDS011;10589;53.636;10.012;2022-12-29T08:10:11;6.87;;;3.57;;
20857;SDS011;10589;53.636;10.012;2022-12-29T08:12:40;6.97;;;3.13;;
20857;SDS011;10589;53.636;10.012;2022-12-29T08:15:07;3.43;;;3.13;;
20857;SDS011;10589;53.636;10.012;2022-12-29T08:17:34;3.27;;;2.43;;
20857;SDS011;10589;53.636;10.012;2022-12-29T08:19:59;2.80;;;2.40;;
20857;SDS011;10589;53.636;10.012;2022-12-29T08:22:25;4.17;;;2.00;;
20857;SDS011;10589;53.636;10.012;2022-12-29T08:24:51;3.33;;;2.07;;
20857;SDS011;10589;53.636;10.012;2022-12-29T08:27:17;3.50;;;2.00;;
20857;SDS011;10589;53.636;10.012;2022-12-29T08:29:42;5.07;;;1.90;;
20857;SDS011;10589;53.636;10.012;2022-12-29T08:32:08;2.37;;;1.63;;
20857;SDS011;10589;53.636;10.012;2022-12-29T08:34:34;5.03;;;2.20;;
20857;SDS011;10589;53.636;10.012;2022-12-29T08:36:59;3.10;;;2.00;;
20857;SDS011;10589;53.636;10.012;2022-12-29T08:39:25;3.73;;;1.87;;
20857;SDS011;10589;53.636;10.012;2022-12-29T08:41:51;2.13;;;1.93;;
20857;SDS011;10589;53.636;10.012;2022-12-29T08:44:16;1.80;;;1.70;;
20857;SDS011;10589;53.636;10.012;2022-12-29T08:46:42;2.80;;;1.70;;
20857;SDS011;10589;53.636;10.012;2022-12-29T08:49:08;1.90;;;1.70;;
20857;SDS011;10589;53.636;10.012;2022-12-29T08:51:33;2.83;;;1.57;;
20857;SDS011;10589;53.636;10.012;2022-12-29T08:54:00;3.50;;;1.90;;
20857;SDS011;10589;53.636;10.012;2022-12-29T08:56:26;2.97;;;1.63;;
20857;SDS011;10589;53.636;10.012;2022-12-29T08:58:52;2.17;;;1.27;;
20857;SDS011;10589;53.636;10.012;2022-12-29T09:01:18;2.20;;;1.30;;
20857;SDS011;10589;53.636;10.012;2022-12-29T09:03:44;1.30;;;1.00;;
20857;SDS011;10589;53.636;10.012;2022-12-29T09:06:10;3.77;;;1.07;;
20857;SDS011;10589;53.636;10.012;2022-12-29T09:08:36;3.27;;;1.00;;
20857;SDS011;10589;53.636;10.012;2022-12-29T09:11:06;7.10;;;1.20;;
20857;SDS011;10589;53.636;10.012;2022-12-29T09:13:33;1.77;;;0.80;;
20857;SDS011;10589;53.636;10.012;2022-12-29T09:15:59;3.23;;;0.97;;
20857;SDS011;10589;53.636;10.012;2022-12-29T09:18:25;4.17;;;1.00;;
20857;SDS011;10589;53.636;10.012;2022-12-29T09:20:55;1.57;;;0.70;;
20857;SDS011;10589;53.636;10.012;2022-12-29T09:23:22;1.87;;;0.67;;
20857;SDS011;10589;53.636;10.012;2022-12-29T09:25:48;2.90;;;0.73;;
20857;SDS011;10589;53.636;10.012;2022-12-29T09:28:14;1.97;;;0.83;;
20857;SDS011;10589;53.636;10.012;2022-12-29T09:30:39;2.93;;;0.63;;
20857;SDS011;10589;53.636;10.012;2022-12-29T09:33:06;2.53;;;0.87;;
20857;SDS011;10589;53.636;10.012;2022-12-29T09:35:31;3.73;;;0.83;;
20857;SDS011;10589;53.636;10.012;2022-12-29T09:37:57;2.30;;;1.00;;
20857;SDS011;10589;53.636;10.012;2022-12-29T09:40:24;4.53;;;0.80;;
20857;SDS011;10589;53.636;10.012;2022-12-29T09:45:55;2.43;;;0.87;;
20857;SDS011;10589;53.636;10.012;2022-12-29T09:48:47;1.27;;;0.63;;
20857;SDS011;10589;53.636;10.012;2022-12-29T09:51:17;4.33;;;0.90;;
20857;SDS011;10589;53.636;10.012;2022-12-29T09:53:50;4.83;;;0.97;;
20857;SDS011;10589;53.636;10.012;2022-12-29T09:56:21;3.97;;;0.63;;
20857;SDS011;10589;53.636;10.012;2022-12-29T09:58:57;4.03;;;0.90;;
20857;SDS011;10589;53.636;10.012;2022-12-29T10:01:36;3.67;;;0.67;;
20857;SDS011;10589;53.636;10.012;2022-12-29T10:04:09;5.17;;;0.87;;
20857;SDS011;10589;53.636;10.012;2022-12-29T10:12:11;3.77;;;0.80;;
20857;SDS011;10589;53.636;10.012;2022-12-29T10:15:01;4.07;;;0.90;;
20857;SDS011;10589;53.636;10.012;2022-12-29T10:20:18;3.90;;;1.00;;
20857;SDS011;10589;53.636;10.012;2022-12-29T10:25:38;4.23;;;1.00;;
20857;SDS011;10589;53.636;10.012;2022-12-29T10:28:10;6.67;;;0.90;;
20857;SDS011;10589;53.636;10.012;2022-12-29T10:30:44;5.33;;;1.13;;
20857;SDS011;10589;53.636;10.012;2022-12-29T10:33:14;5.30;;;1.00;;
20857;SDS011;10589;53.636;10.012;2022-12-29T10:35:44;5.27;;;1.20;;
20857;SDS011;10589;53.636;10.012;2022-12-29T10:41:08;2.23;;;0.70;;
20857;SDS011;10589;53.636;10.012;2022-12-29T10:43:44;5.73;;;0.80;;
20857;SDS011;10589;53.636;10.012;2022-12-29T10:46:12;2.57;;;0.80;;
20857;SDS011;10589;53.636;10.012;2022-12-29T10:48:50;3.23;;;0.73;;
20857;SDS011;10589;53.636;10.012;2022-12-29T10:51:22;6.90;;;1.30;;
20857;SDS011;10589;53.636;10.012;2022-12-29T10:53:59;5.43;;;1.07;;
20857;SDS011;10589;53.636;10.012;2022-12-29T10:56:34;7.10;;;1.00;;
20857;SDS011;10589;53.636;10.012;2022-12-29T10:59:06;7.53;;;1.10;;
20857;SDS011;10589;53.636;10.012;2022-12-29T11:01:57;4.10;;;0.90;;
20857;SDS011;10589;53.636;10.012;2022-12-29T11:07:21;7.23;;;1.37;;
20857;SDS011;10589;53.636;10.012;2022-12-29T11:09:47;8.17;;;1.40;;
20857;SDS011;10589;53.636;10.012;2022-12-29T11:14:45;5.67;;;1.10;;
20857;SDS011;10589;53.636;10.012;2022-12-29T11:17:14;3.30;;;1.23;;
20857;SDS011;10589;53.636;10.012;2022-12-29T11:19:42;6.50;;;0.97;;
20857;SDS011;10589;53.636;10.012;2022-12-29T11:22:12;3.33;;;0.90;;
20857;SDS011;10589;53.636;10.012;2022-12-29T11:24:43;6.87;;;1.10;;
20857;SDS011;10589;53.636;10.012;2022-12-29T11:27:14;3.77;;;1.10;;
20857;SDS011;10589;53.636;10.012;2022-12-29T11:29:48;3.47;;;0.80;;
20857;SDS011;10589;53.636;10.012;2022-12-29T11:32:25;3.90;;;0.80;;
20857;SDS011;10589;53.636;10.012;2022-12-29T11:34:54;4.67;;;0.97;;
20857;SDS011;10589;53.636;10.012;2022-12-29T11:39:55;3.87;;;0.90;;
20857;SDS011;10589;53.636;10.012;2022-12-29T11:42:51;6.37;;;1.33;;
20857;SDS011;10589;53.636;10.012;2022-12-29T11:45:22;3.77;;;0.80;;
20857;SDS011;10589;53.636;10.012;2022-12-29T11:47:49;6.90;;;1.30;;
20857;SDS011;10589;53.636;10.012;2022-12-29T11:50:19;4.03;;;0.73;;
20857;SDS011;10589;53.636;10.012;2022-12-29T11:52:47;6.33;;;0.90;;
20857;SDS011;10589;53.636;10.012;2022-12-29T11:55:20;2.53;;;0.50;;
20857;SDS011;10589;53.636;10.012;2022-12-29T11:57:49;3.50;;;0.90;;
20857;SDS011;10589;53.636;10.012;2022-12-29T12:00:16;1.47;;;0.50;;
20857;SDS011;10589;53.636;10.012;2022-12-29T12:02:49;1.30;;;0.43;;
20857;SDS011;10589;53.636;10.012;2022-12-29T12:05:30;6.43;;;0.70;;
20857;SDS011;10589;53.636;10.012;2022-12-29T12:08:12;2.67;;;0.60;;
20857;SDS011;10589;53.636;10.012;2022-12-29T12:10:44;3.57;;;0.50;;
20857;SDS011;10589;53.636;10.012;2022-12-29T12:13:26;5.40;;;0.90;;
20857;SDS011;10589;53.636;10.012;2022-12-29T12:15:57;2.93;;;0.67;;
20857;SDS011;10589;53.636;10.012;2022-12-29T12:18:31;3.07;;;0.70;;
20857;SDS011;10589;53.636;10.012;2022-12-29T12:26:17;4.43;;;0.80;;
20857;SDS011;10589;53.636;10.012;2022-12-29T12:31:59;4.80;;;0.90;;
20857;SDS011;10589;53.636;10.012;2022-12-29T12:34:41;4.40;;;1.10;;
20857;SDS011;10589;53.636;10.012;2022-12-29T12:46:01;7.37;;;1.17;;
20857;SDS011;10589;53.636;10.012;2022-12-29T12:51:36;9.00;;;1.17;;
20857;SDS011;10589;53.636;10.012;2022-12-29T12:54:10;3.47;;;0.97;;
20857;SDS011;10589;53.636;10.012;2022-12-29T12:57:06;5.63;;;1.00;;
20857;SDS011;10589;53.636;10.012;2022-12-29T12:59:43;5.57;;;1.37;;
20857;SDS011;10589;53.636;10.012;2022-12-29T13:05:34;5.07;;;0.90;;
20857;SDS011;10589;53.636;10.012;2022-12-29T13:08:31;6.27;;;1.10;;
20857;SDS011;10589;53.636;10.012;2022-12-29T13:16:46;3.23;;;0.83;;
20857;SDS011;10589;53.636;10.012;2022-12-29T13:19:35;4.73;;;0.90;;
20857;SDS011;10589;53.636;10.012;2022-12-29T13:27:51;4.10;;;0.83;;
20857;SDS011;10589;53.636;10.012;2022-12-29T13:30:40;5.17;;;1.10;;
20857;SDS011;10589;53.636;10.012;2022-12-29T13:33:33;5.57;;;0.93;;
20857;SDS011;10589;53.636;10.012;2022-12-29T13:36:12;6.97;;;1.17;;
20857;SDS011;10589;53.636;10.012;2022-12-29T13:38:48;8.53;;;1.50;;
20857;SDS011;10589;53.636;10.012;2022-12-29T13:41:29;5.33;;;1.53;;
20857;SDS011;10589;53.636;10.012;2022-12-29T13:44:00;8.90;;;2.43;;
20857;SDS011;10589;53.636;10.012;2022-12-29T13:46:34;7.07;;;1.40;;
20857;SDS011;10589;53.636;10.012;2022-12-29T13:49:12;8.90;;;1.77;;
20857;SDS011;10589;53.636;10.012;2022-12-29T13:56:55;6.80;;;1.50;;
20857;SDS011;10589;53.636;10.012;2022-12-29T14:04:57;5.77;;;1.17;;
20857;SDS011;10589;53.636;10.012;2022-12-29T14:07:42;11.40;;;0.97;;
20857;SDS011;10589;53.636;10.012;2022-12-29T14:10:18;4.97;;;1.10;;
20857;SDS011;10589;53.636;10.012;2022-12-29T14:12:51;3.57;;;1.03;;
20857;SDS011;10589;53.636;10.012;2022-12-29T14:15:24;7.80;;;1.00;;
20857;SDS011;10589;53.636;10.012;2022-12-29T14:18:04;3.00;;;0.97;;
20857;SDS011;10589;53.636;10.012;2022-12-29T14:20:37;9.40;;;1.00;;
20857;SDS011;10589;53.636;10.012;2022-12-29T14:28:40;4.40;;;1.20;;
20857;SDS011;10589;53.636;10.012;2022-12-29T14:33:40;7.63;;;1.23;;
20857;SDS011;10589;53.636;10.012;2022-12-29T14:36:27;10.03;;;1.10;;
20857;SDS011;10589;53.636;10.012;2022-12-29T14:39:00;6.57;;;1.50;;
20857;SDS011;10589;53.636;10.012;2022-12-29T14:41:27;6.70;;;1.20;;
20857;SDS011;10589;53.636;10.012;2022-12-29T14:49:40;7.17;;;0.90;;
20857;SDS011;10589;53.636;10.012;2022-12-29T14:52:13;9.53;;;1.50;;
20857;SDS011;10589;53.636;10.012;2022-12-29T14:54:46;6.57;;;1.10;;
20857;SDS011;10589;53.636;10.012;2022-12-29T14:57:33;8.80;;;1.63;;
20857;SDS011;10589;53.636;10.012;2022-12-29T15:00:44;9.43;;;1.77;;
20857;SDS011;10589;53.636;10.012;2022-12-29T15:03:04;11.73;;;1.50;;
20857;SDS011;10589;53.636;10.012;2022-12-29T15:05:53;7.77;;;1.03;;
20857;SDS011;10589;53.636;10.012;2022-12-29T15:08:30;7.27;;;1.30;;
20857;SDS011;10589;53.636;10.012;2022-12-29T15:11:06;8.70;;;1.87;;
20857;SDS011;10589;53.636;10.012;2022-12-29T15:13:40;5.33;;;1.47;;
20857;SDS011;10589;53.636;10.012;2022-12-29T15:16:21;11.23;;;2.57;;
20857;SDS011;10589;53.636;10.012;2022-12-29T15:18:47;8.63;;;1.77;;
20857;SDS011;10589;53.636;10.012;2022-12-29T15:21:13;12.50;;;1.87;;
20857;SDS011;10589;53.636;10.012;2022-12-29T15:23:40;8.87;;;1.77;;
20857;SDS011;10589;53.636;10.012;2022-12-29T15:26:08;9.70;;;1.70;;
20857;SDS011;10589;53.636;10.012;2022-12-29T15:28:42;13.30;;;1.90;;
20857;SDS011;10589;53.636;10.012;2022-12-29T15:31:23;12.97;;;2.00;;
20857;SDS011;10589;53.636;10.012;2022-12-29T15:33:51;15.17;;;3.00;;
20857;SDS011;10589;53.636;10.012;2022-12-29T15:36:26;8.97;;;2.20;;
20857;SDS011;10589;53.636;10.012;2022-12-29T15:38:52;9.47;;;2.43;;
20857;SDS011;10589;53.636;10.012;2022-12-29T15:41:26;9.93;;;1.90;;
20857;SDS011;10589;53.636;10.012;2022-12-29T15:44:39;8.87;;;1.93;;
20857;SDS011;10589;53.636;10.012;2022-12-29T15:47:20;10.07;;;2.13;;
20857;SDS011;10589;53.636;10.012;2022-12-29T15:49:48;11.83;;;2.20;;
20857;SDS011;10589;53.636;10.012;2022-12-29T15:52:18;7.73;;;1.90;;
20857;SDS011;10589;53.636;10.012;2022-12-29T15:54:46;16.80;;;2.03;;
20857;SDS011;10589;53.636;10.012;2022-12-29T15:57:27;7.50;;;2.00;;
20857;SDS011;10589;53.636;10.012;2022-12-29T16:00:26;6.30;;;2.03;;
20857;SDS011;10589;53.636;10.012;2022-12-29T16:03:00;9.27;;;2.50;;
20857;SDS011;10589;53.636;10.012;2022-12-29T16:05:37;9.27;;;1.90;;
20857;SDS011;10589;53.636;10.012;2022-12-29T16:08:19;8.63;;;2.13;;
20857;SDS011;10589;53.636;10.012;2022-12-29T16:11:02;9.47;;;2.37;;
20857;SDS011;10589;53.636;10.012;2022-12-29T16:13:33;8.97;;;1.87;;
20857;SDS011;10589;53.636;10.012;2022-12-29T16:16:07;12.40;;;2.30;;
20857;SDS011;10589;53.636;10.012;2022-12-29T16:18:38;9.87;;;2.30;;
20857;SDS011;10589;53.636;10.012;2022-12-29T16:21:05;11.93;;;2.77;;
20857;SDS011;10589;53.636;10.012;2022-12-29T16:23:39;13.23;;;3.40;;
20857;SDS011;10589;53.636;10.012;2022-12-29T16:26:11;16.37;;;2.87;;
20857;SDS011;10589;53.636;10.012;2022-12-29T16:28:42;15.20;;;3.20;;
20857;SDS011;10589;53.636;10.012;2022-12-29T16:31:22;8.43;;;2.40;;
20857;SDS011;10589;53.636;10.012;2022-12-29T16:34:09;12.07;;;2.80;;
20857;SDS011;10589;53.636;10.012;2022-12-29T16:38:06;13.23;;;3.00;;
20857;SDS011;10589;53.636;10.012;2022-12-29T16:39:55;17.97;;;3.00;;
20857;SDS011;10589;53.636;10.012;2022-12-29T16:47:45;11.37;;;2.97;;
20857;SDS011;10589;53.636;10.012;2022-12-29T16:50:29;12.27;;;3.60;;
20857;SDS011;10589;53.636;10.012;2022-12-29T16:52:55;21.73;;;4.87;;
20857;SDS011;10589;53.636;10.012;2022-12-29T16:55:20;13.67;;;3.17;;
20857;SDS011;10589;53.636;10.012;2022-12-29T16:57:46;17.50;;;3.63;;
20857;SDS011;10589;53.636;10.012;2022-12-29T17:00:21;12.43;;;3.70;;
20857;SDS011;10589;53.636;10.012;2022-12-29T17:02:49;12.90;;;2.90;;
20857;SDS011;10589;53.636;10.012;2022-12-29T17:05:17;10.07;;;3.43;;
20857;SDS011;10589;53.636;10.012;2022-12-29T17:07:43;13.60;;;4.13;;
20857;SDS011;10589;53.636;10.012;2022-12-29T17:10:10;13.47;;;3.97;;
20857;SDS011;10589;53.636;10.012;2022-12-29T17:12:37;15.37;;;3.97;;
20857;SDS011;10589;53.636;10.012;2022-12-29T17:15:04;20.77;;;4.27;;
20857;SDS011;10589;53.636;10.012;2022-12-29T17:17:41;15.03;;;4.27;;
20857;SDS011;10589;53.636;10.012;2022-12-29T17:20:14;17.90;;;4.10;;
20857;SDS011;10589;53.636;10.012;2022-12-29T17:22:40;16.77;;;4.30;;
20857;SDS011;10589;53.636;10.012;2022-12-29T17:25:06;23.63;;;5.07;;
20857;SDS011;10589;53.636;10.012;2022-12-29T17:27:46;18.53;;;4.07;;
20857;SDS011;10589;53.636;10.012;2022-12-29T17:30:20;17.20;;;3.33;;
20857;SDS011;10589;53.636;10.012;2022-12-29T17:35:26;17.03;;;3.80;;
20857;SDS011;10589;53.636;10.012;2022-12-29T17:37:53;16.77;;;4.17;;
20857;SDS011;10589;53.636;10.012;2022-12-29T17:40:20;16.03;;;4.23;;
20857;SDS011;10589;53.636;10.012;2022-12-29T17:42:49;12.83;;;3.97;;
20857;SDS011;10589;53.636;10.012;2022-12-29T17:45:28;11.53;;;4.10;;
20857;SDS011;10589;53.636;10.012;2022-12-29T17:47:56;12.73;;;3.37;;
20857;SDS011;10589;53.636;10.012;2022-12-29T17:50:26;12.20;;;3.87;;
20857;SDS011;10589;53.636;10.012;2022-12-29T17:52:54;20.33;;;4.03;;
20857;SDS011;10589;53.636;10.012;2022-12-29T17:55:22;13.27;;;4.63;;
20857;SDS011;10589;53.636;10.012;2022-12-29T17:57:49;15.80;;;4.40;;
20857;SDS011;10589;53.636;10.012;2022-12-29T18:00:26;11.87;;;4.20;;
20857;SDS011;10589;53.636;10.012;2022-12-29T18:02:54;15.93;;;3.97;;
20857;SDS011;10589;53.636;10.012;2022-12-29T18:05:24;14.17;;;3.77;;
20857;SDS011;10589;53.636;10.012;2022-12-29T18:07:52;15.03;;;3.90;;
20857;SDS011;10589;53.636;10.012;2022-12-29T18:10:20;15.40;;;3.87;;
20857;SDS011;10589;53.636;10.012;2022-12-29T18:12:47;13.50;;;4.50;;
20857;SDS011;10589;53.636;10.012;2022-12-29T18:15:25;17.97;;;5.07;;
20857;SDS011;10589;53.636;10.012;2022-12-29T18:18:08;16.37;;;4.37;;
20857;SDS011;10589;53.636;10.012;2022-12-29T18:20:37;15.90;;;4.20;;
20857;SDS011;10589;53.636;10.012;2022-12-29T18:23:03;14.77;;;4.40;;
20857;SDS011;10589;53.636;10.012;2022-12-29T18:25:35;14.43;;;4.50;;
20857;SDS011;10589;53.636;10.012;2022-12-29T18:28:27;14.13;;;4.60;;
20857;SDS011;10589;53.636;10.012;2022-12-29T18:30:54;10.90;;;3.47;;
20857;SDS011;10589;53.636;10.012;2022-12-29T18:33:21;13.03;;;3.70;;
20857;SDS011;10589;53.636;10.012;2022-12-29T18:38:23;16.20;;;4.27;;
20857;SDS011;10589;53.636;10.012;2022-12-29T18:40:48;13.73;;;4.60;;
20857;SDS011;10589;53.636;10.012;2022-12-29T18:43:16;15.77;;;4.57;;
20857;SDS011;10589;53.636;10.012;2022-12-29T18:45:42;13.10;;;4.93;;
20857;SDS011;10589;53.636;10.012;2022-12-29T18:48:12;14.20;;;4.40;;
20857;SDS011;10589;53.636;10.012;2022-12-29T18:50:41;12.33;;;4.17;;
20857;SDS011;10589;53.636;10.012;2022-12-29T18:53:28;13.63;;;4.13;;
20857;SDS011;10589;53.636;10.012;2022-12-29T18:55:53;11.03;;;4.70;;
20857;SDS011;10589;53.636;10.012;2022-12-29T18:58:19;12.70;;;5.10;;
20857;SDS011;10589;53.636;10.012;2022-12-29T19:00:45;13.50;;;4.30;;
20857;SDS011;10589;53.636;10.012;2022-12-29T19:03:14;15.23;;;4.80;;
20857;SDS011;10589;53.636;10.012;2022-12-29T19:05:42;13.57;;;4.73;;
20857;SDS011;10589;53.636;10.012;2022-12-29T19:08:09;13.73;;;5.40;;
20857;SDS011;10589;53.636;10.012;2022-12-29T19:10:36;12.23;;;4.57;;
20857;SDS011;10589;53.636;10.012;2022-12-29T19:13:03;13.63;;;5.23;;
20857;SDS011;10589;53.636;10.012;2022-12-29T19:15:30;19.60;;;5.50;;
20857;SDS011;10589;53.636;10.012;2022-12-29T19:17:58;21.50;;;5.67;;
20857;SDS011;10589;53.636;10.012;2022-12-29T19:20:30;17.00;;;4.80;;
20857;SDS011;10589;53.636;10.012;2022-12-29T19:22:58;19.03;;;5.00;;
20857;SDS011;10589;53.636;10.012;2022-12-29T19:25:25;22.47;;;6.20;;
20857;SDS011;10589;53.636;10.012;2022-12-29T19:27:51;20.47;;;5.43;;
20857;SDS011;10589;53.636;10.012;2022-12-29T19:30:18;22.23;;;5.80;;
20857;SDS011;10589;53.636;10.012;2022-12-29T19:32:46;13.67;;;5.73;;
20857;SDS011;10589;53.636;10.012;2022-12-29T19:35:13;25.30;;;8.97;;
20857;SDS011;10589;53.636;10.012;2022-12-29T19:37:39;14.80;;;5.60;;
20857;SDS011;10589;53.636;10.012;2022-12-29T19:40:09;19.67;;;6.27;;
20857;SDS011;10589;53.636;10.012;2022-12-29T19:42:37;18.97;;;6.97;;
20857;SDS011;10589;53.636;10.012;2022-12-29T19:45:03;17.20;;;6.53;;
20857;SDS011;10589;53.636;10.012;2022-12-29T19:47:29;20.23;;;6.47;;
20857;SDS011;10589;53.636;10.012;2022-12-29T19:49:57;20.67;;;7.17;;
20857;SDS011;10589;53.636;10.012;2022-12-29T19:52:24;19.40;;;7.23;;
20857;SDS011;10589;53.636;10.012;2022-12-29T19:54:51;19.13;;;6.83;;
20857;SDS011;10589;53.636;10.012;2022-12-29T19:57:17;19.80;;;7.43;;
20857;SDS011;10589;53.636;10.012;2022-12-29T19:59:43;23.63;;;7.37;;
20857;SDS011;10589;53.636;10.012;2022-12-29T20:02:22;19.13;;;6.67;;
20857;SDS011;10589;53.636;10.012;2022-12-29T20:04:50;15.43;;;6.07;;
20857;SDS011;10589;53.636;10.012;2022-12-29T20:07:16;21.13;;;6.17;;
20857;SDS011;10589;53.636;10.012;2022-12-29T20:09:42;15.70;;;5.43;;
20857;SDS011;10589;53.636;10.012;2022-12-29T20:12:08;10.57;;;4.30;;
20857;SDS011;10589;53.636;10.012;2022-12-29T20:14:36;9.33;;;3.20;;
20857;SDS011;10589;53.636;10.012;2022-12-29T20:17:02;8.20;;;3.40;;
20857;SDS011;10589;53.636;10.012;2022-12-29T20:19:29;12.27;;;3.33;;
20857;SDS011;10589;53.636;10.012;2022-12-29T20:21:55;6.93;;;3.70;;
20857;SDS011;10589;53.636;10.012;2022-12-29T20:24:20;6.30;;;3.13;;
20857;SDS011;10589;53.636;10.012;2022-12-29T20:26:46;4.33;;;2.40;;
20857;SDS011;10589;53.636;10.012;2022-12-29T20:29:12;5.17;;;2.47;;
20857;SDS011;10589;53.636;10.012;2022-12-29T20:31:39;5.53;;;1.77;;
20857;SDS011;10589;53.636;10.012;2022-12-29T20:34:05;7.00;;;2.10;;
20857;SDS011;10589;53.636;10.012;2022-12-29T20:36:33;6.63;;;1.97;;
20857;SDS011;10589;53.636;10.012;2022-12-29T20:39:04;6.07;;;1.50;;
20857;SDS011;10589;53.636;10.012;2022-12-29T20:41:32;3.37;;;1.50;;
20857;SDS011;10589;53.636;10.012;2022-12-29T20:43:57;6.73;;;1.73;;
20857;SDS011;10589;53.636;10.012;2022-12-29T20:46:23;3.87;;;1.20;;
20857;SDS011;10589;53.636;10.012;2022-12-29T20:48:49;5.40;;;1.80;;
20857;SDS011;10589;53.636;10.012;2022-12-29T20:51:16;7.17;;;2.03;;
20857;SDS011;10589;53.636;10.012;2022-12-29T20:53:43;6.30;;;1.60;;
20857;SDS011;10589;53.636;10.012;2022-12-29T20:56:12;4.30;;;1.40;;
20857;SDS011;10589;53.636;10.012;2022-12-29T20:58:39;7.20;;;1.90;;
20857;SDS011;10589;53.636;10.012;2022-12-29T21:01:06;7.70;;;1.47;;
20857;SDS011;10589;53.636;10.012;2022-12-29T21:03:34;11.73;;;2.07;;
20857;SDS011;10589;53.636;10.012;2022-12-29T21:06:00;4.47;;;1.30;;
20857;SDS011;10589;53.636;10.012;2022-12-29T21:08:27;5.53;;;1.93;;